sensor_id;sensor_type;location;lat;lon;timestamp;P1;durP1;ratioP1;P2;durP2;ratioP2
1987;SDS011;12775;46.994;15.498;2023-11-21T00:00:55;17.32;;;15.52;;
1987;SDS011;12775;46.994;15.498;2023-11-21T00:03:22;25.02;;;18.46;;
1987;SDS011;12775;46.994;15.498;2023-11-21T00:05:49;16.46;;;14.82;;
1987;SDS011;12775;46.994;15.498;2023-11-21T00:08:17;18.54;;;16.54;;
1987;SDS011;12775;46.994;15.498;2023-11-21T00:10:44;19.22;;;16.38;;
1987;SDS011;12775;46.994;15.498;2023-11-21T00:13:12;19.60;;;17.34;;
1987;SDS011;12775;46.994;15.498;2023-11-21T00:15:39;16.96;;;15.04;;
1987;SDS011;12775;46.994;15.498;2023-11-21T00:18:06;19.52;;;15.46;;
1987;SDS011;12775;46.994;15.498;2023-11-21T00:20:34;16.74;;;14.94;;
1987;SDS011;12775;46.994;15.498;2023-11-21T00:23:01;18.78;;;15.02;;
1987;SDS011;12775;46.994;15.498;2023-11-21T00:25:28;16.38;;;14.66;;
1987;SDS011;12775;46.994;15.498;2023-11-21T00:27:56;16.96;;;15.14;;
1987;SDS011;12775;46.994;15.498;2023-11-21T00:30:23;20.72;;;15.52;;
1987;SDS011;12775;46.994;15.498;2023-11-21T00:32:50;15.74;;;14.14;;
1987;SDS011;12775;46.994;15.498;2023-11-21T00:35:18;14.86;;;13.32;;
1987;SDS011;12775;46.994;15.498;2023-11-21T00:37:45;17.34;;;15.00;;
1987;SDS011;12775;46.994;15.498;2023-11-21T00:40:13;18.42;;;16.26;;
1987;SDS011;12775;46.994;15.498;2023-11-21T00:42:40;15.62;;;14.06;;
1987;SDS011;12775;46.994;15.498;2023-11-21T00:45:07;21.64;;;15.72;;
1987;SDS011;12775;46.994;15.498;2023-11-21T00:47:34;15.38;;;13.86;;
1987;SDS011;12775;46.994;15.498;2023-11-21T00:50:01;15.52;;;12.96;;
1987;SDS011;12775;46.994;15.498;2023-11-21T00:52:29;18.86;;;15.92;;
1987;SDS011;12775;46.994;15.498;2023-11-21T00:54:56;15.72;;;14.12;;
1987;SDS011;12775;46.994;15.498;2023-11-21T00:57:24;16.00;;;13.42;;
1987;SDS011;12775;46.994;15.498;2023-11-21T00:59:52;15.66;;;14.06;;
1987;SDS011;12775;46.994;15.498;2023-11-21T01:02:19;17.24;;;13.78;;
1987;SDS011;12775;46.994;15.498;2023-11-21T01:04:46;15.78;;;14.18;;
1987;SDS011;12775;46.994;15.498;2023-11-21T01:07:14;15.90;;;14.04;;
1987;SDS011;12775;46.994;15.498;2023-11-21T01:09:41;18.98;;;17.06;;
1987;SDS011;12775;46.994;15.498;2023-11-21T01:12:08;14.60;;;13.10;;
1987;SDS011;12775;46.994;15.498;2023-11-21T01:14:36;19.10;;;15.96;;
1987;SDS011;12775;46.994;15.498;2023-11-21T01:17:03;17.44;;;13.72;;
1987;SDS011;12775;46.994;15.498;2023-11-21T01:19:31;16.54;;;14.20;;
1987;SDS011;12775;46.994;15.498;2023-11-21T01:21:58;16.84;;;14.02;;
1987;SDS011;12775;46.994;15.498;2023-11-21T01:24:25;19.68;;;14.68;;
1987;SDS011;12775;46.994;15.498;2023-11-21T01:26:53;16.28;;;13.32;;
1987;SDS011;12775;46.994;15.498;2023-11-21T01:29:20;14.38;;;13.08;;
1987;SDS011;12775;46.994;15.498;2023-11-21T01:31:47;14.94;;;12.56;;
1987;SDS011;12775;46.994;15.498;2023-11-21T01:34:15;12.24;;;10.82;;
1987;SDS011;12775;46.994;15.498;2023-11-21T01:36:41;13.30;;;12.00;;
1987;SDS011;12775;46.994;15.498;2023-11-21T01:39:09;15.74;;;11.96;;
1987;SDS011;12775;46.994;15.498;2023-11-21T01:41:36;14.24;;;12.50;;
1987;SDS011;12775;46.994;15.498;2023-11-21T01:44:04;13.68;;;12.26;;
1987;SDS011;12775;46.994;15.498;2023-11-21T01:46:31;15.20;;;12.56;;
1987;SDS011;12775;46.994;15.498;2023-11-21T01:48:59;12.62;;;11.04;;
1987;SDS011;12775;46.994;15.498;2023-11-21T01:51:26;13.96;;;12.32;;
1987;SDS011;12775;46.994;15.498;2023-11-21T01:53:53;13.76;;;12.36;;
1987;SDS011;12775;46.994;15.498;2023-11-21T01:56:20;15.08;;;13.48;;
1987;SDS011;12775;46.994;15.498;2023-11-21T01:58:47;13.80;;;12.34;;
1987;SDS011;12775;46.994;15.498;2023-11-21T02:01:14;15.86;;;12.66;;
1987;SDS011;12775;46.994;15.498;2023-11-21T02:03:41;16.20;;;13.98;;
1987;SDS011;12775;46.994;15.498;2023-11-21T02:06:09;16.96;;;14.98;;
1987;SDS011;12775;46.994;15.498;2023-11-21T02:08:36;14.78;;;12.16;;
1987;SDS011;12775;46.994;15.498;2023-11-21T02:11:03;12.24;;;11.02;;
1987;SDS011;12775;46.994;15.498;2023-11-21T02:13:31;12.18;;;11.00;;
1987;SDS011;12775;46.994;15.498;2023-11-21T02:15:58;13.32;;;11.94;;
1987;SDS011;12775;46.994;15.498;2023-11-21T02:18:26;15.02;;;11.74;;
1987;SDS011;12775;46.994;15.498;2023-11-21T02:20:53;13.50;;;12.20;;
1987;SDS011;12775;46.994;15.498;2023-11-21T02:23:20;14.84;;;11.84;;
1987;SDS011;12775;46.994;15.498;2023-11-21T02:25:48;13.98;;;11.68;;
1987;SDS011;12775;46.994;15.498;2023-11-21T02:28:15;14.62;;;12.76;;
1987;SDS011;12775;46.994;15.498;2023-11-21T02:30:43;15.20;;;12.96;;
1987;SDS011;12775;46.994;15.498;2023-11-21T02:33:10;15.72;;;11.62;;
1987;SDS011;12775;46.994;15.498;2023-11-21T02:35:37;12.14;;;10.54;;
1987;SDS011;12775;46.994;15.498;2023-11-21T02:38:05;13.80;;;11.62;;
1987;SDS011;12775;46.994;15.498;2023-11-21T02:40:32;15.10;;;12.84;;
1987;SDS011;12775;46.994;15.498;2023-11-21T02:42:59;13.58;;;12.18;;
1987;SDS011;12775;46.994;15.498;2023-11-21T02:45:26;16.96;;;10.88;;
1987;SDS011;12775;46.994;15.498;2023-11-21T02:47:53;13.50;;;12.14;;
1987;SDS011;12775;46.994;15.498;2023-11-21T02:50:21;13.72;;;12.30;;
1987;SDS011;12775;46.994;15.498;2023-11-21T02:52:48;12.82;;;11.40;;
1987;SDS011;12775;46.994;15.498;2023-11-21T02:55:15;14.68;;;12.00;;
1987;SDS011;12775;46.994;15.498;2023-11-21T02:57:43;15.80;;;12.04;;
1987;SDS011;12775;46.994;15.498;2023-11-21T03:00:11;14.98;;;11.40;;
1987;SDS011;12775;46.994;15.498;2023-11-21T03:02:38;20.18;;;12.62;;
1987;SDS011;12775;46.994;15.498;2023-11-21T03:05:06;16.98;;;11.40;;
1987;SDS011;12775;46.994;15.498;2023-11-21T03:07:33;13.44;;;11.02;;
1987;SDS011;12775;46.994;15.498;2023-11-21T03:10:00;17.08;;;11.30;;
1987;SDS011;12775;46.994;15.498;2023-11-21T03:12:27;10.54;;;9.64;;
1987;SDS011;12775;46.994;15.498;2023-11-21T03:14:55;12.72;;;10.66;;
1987;SDS011;12775;46.994;15.498;2023-11-21T03:17:22;13.50;;;10.70;;
1987;SDS011;12775;46.994;15.498;2023-11-21T03:19:49;15.14;;;11.96;;
1987;SDS011;12775;46.994;15.498;2023-11-21T03:22:17;14.82;;;12.62;;
1987;SDS011;12775;46.994;15.498;2023-11-21T03:24:44;16.36;;;12.56;;
1987;SDS011;12775;46.994;15.498;2023-11-21T03:27:12;16.74;;;14.32;;
1987;SDS011;12775;46.994;15.498;2023-11-21T03:29:39;13.78;;;12.34;;
1987;SDS011;12775;46.994;15.498;2023-11-21T03:32:06;15.44;;;13.46;;
1987;SDS011;12775;46.994;15.498;2023-11-21T03:34:34;15.42;;;13.84;;
1987;SDS011;12775;46.994;15.498;2023-11-21T03:37:02;19.32;;;13.14;;
1987;SDS011;12775;46.994;15.498;2023-11-21T03:39:30;18.42;;;15.00;;
1987;SDS011;12775;46.994;15.498;2023-11-21T03:41:57;17.40;;;14.18;;
1987;SDS011;12775;46.994;15.498;2023-11-21T03:44:24;16.24;;;14.48;;
1987;SDS011;12775;46.994;15.498;2023-11-21T03:46:52;16.32;;;13.86;;
1987;SDS011;12775;46.994;15.498;2023-11-21T03:49:18;14.24;;;12.74;;
1987;SDS011;12775;46.994;15.498;2023-11-21T03:51:46;14.70;;;12.86;;
1987;SDS011;12775;46.994;15.498;2023-11-21T03:54:13;15.02;;;13.46;;
1987;SDS011;12775;46.994;15.498;2023-11-21T03:56:40;14.36;;;12.54;;
1987;SDS011;12775;46.994;15.498;2023-11-21T03:59:08;17.82;;;14.10;;
1987;SDS011;12775;46.994;15.498;2023-11-21T04:01:35;18.78;;;15.08;;
1987;SDS011;12775;46.994;15.498;2023-11-21T04:04:03;15.98;;;14.34;;
1987;SDS011;12775;46.994;15.498;2023-11-21T04:06:29;17.38;;;15.52;;
1987;SDS011;12775;46.994;15.498;2023-11-21T04:08:57;14.34;;;12.84;;
1987;SDS011;12775;46.994;15.498;2023-11-21T04:11:24;20.62;;;16.00;;
1987;SDS011;12775;46.994;15.498;2023-11-21T04:13:51;17.00;;;13.84;;
1987;SDS011;12775;46.994;15.498;2023-11-21T04:16:18;17.68;;;14.90;;
1987;SDS011;12775;46.994;15.498;2023-11-21T04:18:46;19.14;;;15.96;;
1987;SDS011;12775;46.994;15.498;2023-11-21T04:21:13;18.06;;;13.76;;
1987;SDS011;12775;46.994;15.498;2023-11-21T04:23:40;18.82;;;14.00;;
1987;SDS011;12775;46.994;15.498;2023-11-21T04:26:08;14.74;;;13.26;;
1987;SDS011;12775;46.994;15.498;2023-11-21T04:28:35;17.44;;;14.18;;
1987;SDS011;12775;46.994;15.498;2023-11-21T04:31:02;18.50;;;15.74;;
1987;SDS011;12775;46.994;15.498;2023-11-21T04:33:30;15.56;;;13.80;;
1987;SDS011;12775;46.994;15.498;2023-11-21T04:35:57;19.24;;;13.30;;
1987;SDS011;12775;46.994;15.498;2023-11-21T04:38:24;17.42;;;13.66;;
1987;SDS011;12775;46.994;15.498;2023-11-21T04:40:52;16.26;;;14.02;;
1987;SDS011;12775;46.994;15.498;2023-11-21T04:43:19;16.84;;;15.04;;
1987;SDS011;12775;46.994;15.498;2023-11-21T04:45:46;16.10;;;13.64;;
1987;SDS011;12775;46.994;15.498;2023-11-21T04:48:14;14.36;;;12.88;;
1987;SDS011;12775;46.994;15.498;2023-11-21T04:50:41;13.54;;;11.68;;
1987;SDS011;12775;46.994;15.498;2023-11-21T04:53:10;15.34;;;13.86;;
1987;SDS011;12775;46.994;15.498;2023-11-21T04:55:37;18.06;;;14.78;;
1987;SDS011;12775;46.994;15.498;2023-11-21T04:58:04;15.36;;;13.62;;
1987;SDS011;12775;46.994;15.498;2023-11-21T05:00:33;17.44;;;13.50;;
1987;SDS011;12775;46.994;15.498;2023-11-21T05:03:00;14.64;;;12.72;;
1987;SDS011;12775;46.994;15.498;2023-11-21T05:05:28;15.66;;;13.96;;
1987;SDS011;12775;46.994;15.498;2023-11-21T05:07:55;15.14;;;13.26;;
1987;SDS011;12775;46.994;15.498;2023-11-21T05:10:23;14.26;;;12.24;;
1987;SDS011;12775;46.994;15.498;2023-11-21T05:12:50;15.36;;;13.12;;
1987;SDS011;12775;46.994;15.498;2023-11-21T05:15:17;16.66;;;13.34;;
1987;SDS011;12775;46.994;15.498;2023-11-21T05:17:45;14.18;;;12.12;;
1987;SDS011;12775;46.994;15.498;2023-11-21T05:20:13;19.24;;;15.84;;
1987;SDS011;12775;46.994;15.498;2023-11-21T05:22:40;20.80;;;17.08;;
1987;SDS011;12775;46.994;15.498;2023-11-21T05:25:07;25.50;;;18.22;;
1987;SDS011;12775;46.994;15.498;2023-11-21T05:27:34;21.78;;;19.56;;
1987;SDS011;12775;46.994;15.498;2023-11-21T05:30:01;22.46;;;19.54;;
1987;SDS011;12775;46.994;15.498;2023-11-21T05:32:27;22.38;;;19.36;;
1987;SDS011;12775;46.994;15.498;2023-11-21T05:34:54;27.84;;;20.26;;
1987;SDS011;12775;46.994;15.498;2023-11-21T05:37:20;23.02;;;19.58;;
1987;SDS011;12775;46.994;15.498;2023-11-21T05:39:47;25.32;;;21.64;;
1987;SDS011;12775;46.994;15.498;2023-11-21T05:42:14;21.18;;;18.64;;
1987;SDS011;12775;46.994;15.498;2023-11-21T05:44:42;36.88;;;32.40;;
1987;SDS011;12775;46.994;15.498;2023-11-21T05:47:10;30.00;;;26.00;;
1987;SDS011;12775;46.994;15.498;2023-11-21T05:49:37;24.46;;;20.66;;
1987;SDS011;12775;46.994;15.498;2023-11-21T05:52:05;19.06;;;17.04;;
1987;SDS011;12775;46.994;15.498;2023-11-21T05:54:32;20.32;;;17.82;;
1987;SDS011;12775;46.994;15.498;2023-11-21T05:56:59;22.26;;;16.38;;
1987;SDS011;12775;46.994;15.498;2023-11-21T05:59:27;21.40;;;17.54;;
1987;SDS011;12775;46.994;15.498;2023-11-21T06:01:54;20.30;;;18.24;;
1987;SDS011;12775;46.994;15.498;2023-11-21T06:04:21;20.76;;;16.94;;
1987;SDS011;12775;46.994;15.498;2023-11-21T06:06:48;16.92;;;15.02;;
1987;SDS011;12775;46.994;15.498;2023-11-21T06:09:16;16.68;;;14.78;;
1987;SDS011;12775;46.994;15.498;2023-11-21T06:11:43;19.16;;;14.66;;
1987;SDS011;12775;46.994;15.498;2023-11-21T06:14:10;17.18;;;15.48;;
1987;SDS011;12775;46.994;15.498;2023-11-21T06:16:39;17.32;;;15.60;;
1987;SDS011;12775;46.994;15.498;2023-11-21T06:19:05;16.74;;;15.06;;
1987;SDS011;12775;46.994;15.498;2023-11-21T06:21:33;19.22;;;17.24;;
1987;SDS011;12775;46.994;15.498;2023-11-21T06:24:00;25.14;;;22.48;;
1987;SDS011;12775;46.994;15.498;2023-11-21T06:26:27;24.88;;;21.68;;
1987;SDS011;12775;46.994;15.498;2023-11-21T06:28:55;24.02;;;18.92;;
1987;SDS011;12775;46.994;15.498;2023-11-21T06:31:22;34.42;;;30.80;;
1987;SDS011;12775;46.994;15.498;2023-11-21T06:33:49;30.12;;;26.98;;
1987;SDS011;12775;46.994;15.498;2023-11-21T06:36:17;24.70;;;21.12;;
1987;SDS011;12775;46.994;15.498;2023-11-21T06:38:44;21.72;;;18.76;;
1987;SDS011;12775;46.994;15.498;2023-11-21T06:41:12;24.62;;;20.26;;
1987;SDS011;12775;46.994;15.498;2023-11-21T06:43:39;25.50;;;18.74;;
1987;SDS011;12775;46.994;15.498;2023-11-21T06:46:06;21.70;;;19.40;;
1987;SDS011;12775;46.994;15.498;2023-11-21T06:48:34;20.42;;;18.32;;
1987;SDS011;12775;46.994;15.498;2023-11-21T06:51:01;24.36;;;19.70;;
1987;SDS011;12775;46.994;15.498;2023-11-21T06:53:28;21.72;;;19.42;;
1987;SDS011;12775;46.994;15.498;2023-11-21T06:55:56;19.40;;;17.50;;
1987;SDS011;12775;46.994;15.498;2023-11-21T06:58:23;18.90;;;16.84;;
1987;SDS011;12775;46.994;15.498;2023-11-21T07:00:50;24.96;;;17.76;;
1987;SDS011;12775;46.994;15.498;2023-11-21T07:03:18;18.02;;;16.10;;
1987;SDS011;12775;46.994;15.498;2023-11-21T07:05:45;22.60;;;20.24;;
1987;SDS011;12775;46.994;15.498;2023-11-21T07:08:12;32.22;;;21.42;;
1987;SDS011;12775;46.994;15.498;2023-11-21T07:10:38;42.44;;;24.52;;
1987;SDS011;12775;46.994;15.498;2023-11-21T07:13:05;46.44;;;37.04;;
1987;SDS011;12775;46.994;15.498;2023-11-21T07:15:32;30.64;;;27.46;;
1987;SDS011;12775;46.994;15.498;2023-11-21T07:17:58;20.96;;;18.80;;
1987;SDS011;12775;46.994;15.498;2023-11-21T07:20:25;19.12;;;17.06;;
1987;SDS011;12775;46.994;15.498;2023-11-21T07:22:53;16.64;;;14.90;;
1987;SDS011;12775;46.994;15.498;2023-11-21T07:25:20;17.96;;;15.60;;
1987;SDS011;12775;46.994;15.498;2023-11-21T07:27:48;28.08;;;19.86;;
1987;SDS011;12775;46.994;15.498;2023-11-21T07:30:14;18.82;;;16.52;;
1987;SDS011;12775;46.994;15.498;2023-11-21T07:32:42;17.14;;;15.50;;
1987;SDS011;12775;46.994;15.498;2023-11-21T07:35:09;19.28;;;17.02;;
1987;SDS011;12775;46.994;15.498;2023-11-21T07:37:37;18.08;;;14.60;;
1987;SDS011;12775;46.994;15.498;2023-11-21T07:40:04;26.50;;;18.16;;
1987;SDS011;12775;46.994;15.498;2023-11-21T07:42:32;27.26;;;22.58;;
1987;SDS011;12775;46.994;15.498;2023-11-21T07:44:59;25.76;;;22.56;;
1987;SDS011;12775;46.994;15.498;2023-11-21T07:47:26;24.72;;;22.12;;
1987;SDS011;12775;46.994;15.498;2023-11-21T07:49:54;25.82;;;23.04;;
1987;SDS011;12775;46.994;15.498;2023-11-21T07:52:22;24.44;;;20.30;;
1987;SDS011;12775;46.994;15.498;2023-11-21T07:54:49;22.62;;;18.98;;
1987;SDS011;12775;46.994;15.498;2023-11-21T07:57:16;23.10;;;20.72;;
1987;SDS011;12775;46.994;15.498;2023-11-21T07:59:44;24.82;;;22.12;;
1987;SDS011;12775;46.994;15.498;2023-11-21T08:02:11;26.18;;;22.70;;
1987;SDS011;12775;46.994;15.498;2023-11-21T08:04:38;25.60;;;22.72;;
1987;SDS011;12775;46.994;15.498;2023-11-21T08:07:05;23.88;;;18.42;;
1987;SDS011;12775;46.994;15.498;2023-11-21T08:09:32;18.94;;;17.00;;
1987;SDS011;12775;46.994;15.498;2023-11-21T08:12:00;23.88;;;18.20;;
1987;SDS011;12775;46.994;15.498;2023-11-21T08:14:27;21.10;;;18.90;;
1987;SDS011;12775;46.994;15.498;2023-11-21T08:16:54;21.60;;;18.90;;
1987;SDS011;12775;46.994;15.498;2023-11-21T08:19:22;25.82;;;22.54;;
1987;SDS011;12775;46.994;15.498;2023-11-21T08:21:49;25.06;;;22.24;;
1987;SDS011;12775;46.994;15.498;2023-11-21T08:24:17;24.76;;;22.06;;
1987;SDS011;12775;46.994;15.498;2023-11-21T08:26:44;27.56;;;23.30;;
1987;SDS011;12775;46.994;15.498;2023-11-21T08:29:11;23.84;;;21.34;;
1987;SDS011;12775;46.994;15.498;2023-11-21T08:31:39;23.62;;;20.80;;
1987;SDS011;12775;46.994;15.498;2023-11-21T08:34:06;23.58;;;21.34;;
1987;SDS011;12775;46.994;15.498;2023-11-21T08:36:33;26.04;;;19.82;;
1987;SDS011;12775;46.994;15.498;2023-11-21T08:38:59;24.50;;;20.90;;
1987;SDS011;12775;46.994;15.498;2023-11-21T08:41:26;22.08;;;18.08;;
1987;SDS011;12775;46.994;15.498;2023-11-21T08:43:53;26.76;;;20.90;;
1987;SDS011;12775;46.994;15.498;2023-11-21T08:46:20;20.98;;;18.58;;
1987;SDS011;12775;46.994;15.498;2023-11-21T08:48:47;27.08;;;19.10;;
1987;SDS011;12775;46.994;15.498;2023-11-21T08:51:14;21.34;;;18.68;;
1987;SDS011;12775;46.994;15.498;2023-11-21T08:53:41;22.90;;;19.54;;
1987;SDS011;12775;46.994;15.498;2023-11-21T08:56:12;21.38;;;18.88;;
1987;SDS011;12775;46.994;15.498;2023-11-21T08:58:39;20.66;;;18.44;;
1987;SDS011;12775;46.994;15.498;2023-11-21T09:01:06;21.06;;;18.70;;
1987;SDS011;12775;46.994;15.498;2023-11-21T09:03:33;25.32;;;18.60;;
1987;SDS011;12775;46.994;15.498;2023-11-21T09:06:01;19.50;;;17.54;;
1987;SDS011;12775;46.994;15.498;2023-11-21T09:08:28;21.60;;;18.26;;
1987;SDS011;12775;46.994;15.498;2023-11-21T09:10:56;29.28;;;22.72;;
1987;SDS011;12775;46.994;15.498;2023-11-21T09:13:23;25.32;;;19.48;;
1987;SDS011;12775;46.994;15.498;2023-11-21T09:15:50;22.66;;;20.34;;
1987;SDS011;12775;46.994;15.498;2023-11-21T09:18:18;19.60;;;17.50;;
1987;SDS011;12775;46.994;15.498;2023-11-21T09:20:45;23.30;;;17.18;;
1987;SDS011;12775;46.994;15.498;2023-11-21T09:23:12;18.90;;;17.00;;
1987;SDS011;12775;46.994;15.498;2023-11-21T09:25:41;19.52;;;17.26;;
1987;SDS011;12775;46.994;15.498;2023-11-21T09:28:09;19.70;;;16.16;;
1987;SDS011;12775;46.994;15.498;2023-11-21T09:30:35;16.80;;;15.02;;
1987;SDS011;12775;46.994;15.498;2023-11-21T09:33:03;20.68;;;15.24;;
1987;SDS011;12775;46.994;15.498;2023-11-21T09:35:30;18.32;;;14.72;;
1987;SDS011;12775;46.994;15.498;2023-11-21T09:37:57;16.64;;;15.14;;
1987;SDS011;12775;46.994;15.498;2023-11-21T09:40:25;16.22;;;14.58;;
1987;SDS011;12775;46.994;15.498;2023-11-21T09:42:55;17.78;;;14.42;;
1987;SDS011;12775;46.994;15.498;2023-11-21T09:45:26;18.92;;;15.96;;
1987;SDS011;12775;46.994;15.498;2023-11-21T09:47:54;17.22;;;15.40;;
1987;SDS011;12775;46.994;15.498;2023-11-21T09:50:22;17.50;;;15.58;;
1987;SDS011;12775;46.994;15.498;2023-11-21T09:53:21;17.74;;;13.68;;
1987;SDS011;12775;46.994;15.498;2023-11-21T09:55:35;17.40;;;15.04;;
1987;SDS011;12775;46.994;15.498;2023-11-21T09:58:03;14.40;;;12.56;;
1987;SDS011;12775;46.994;15.498;2023-11-21T10:00:31;19.30;;;15.10;;
1987;SDS011;12775;46.994;15.498;2023-11-21T10:02:59;17.66;;;16.04;;
1987;SDS011;12775;46.994;15.498;2023-11-21T10:05:26;19.78;;;16.14;;
1987;SDS011;12775;46.994;15.498;2023-11-21T10:07:53;21.52;;;16.56;;
1987;SDS011;12775;46.994;15.498;2023-11-21T10:10:22;21.04;;;17.22;;
1987;SDS011;12775;46.994;15.498;2023-11-21T10:12:49;16.60;;;14.78;;
1987;SDS011;12775;46.994;15.498;2023-11-21T10:15:15;16.00;;;14.32;;
1987;SDS011;12775;46.994;15.498;2023-11-21T10:17:43;15.70;;;14.02;;
1987;SDS011;12775;46.994;15.498;2023-11-21T10:20:11;15.44;;;14.06;;
1987;SDS011;12775;46.994;15.498;2023-11-21T10:22:38;15.92;;;13.38;;
1987;SDS011;12775;46.994;15.498;2023-11-21T10:25:05;15.62;;;13.46;;
1987;SDS011;12775;46.994;15.498;2023-11-21T10:27:32;15.54;;;13.88;;
1987;SDS011;12775;46.994;15.498;2023-11-21T10:30:00;17.98;;;16.12;;
1987;SDS011;12775;46.994;15.498;2023-11-21T10:32:28;17.50;;;15.64;;
1987;SDS011;12775;46.994;15.498;2023-11-21T10:34:56;15.64;;;14.04;;
1987;SDS011;12775;46.994;15.498;2023-11-21T10:37:22;18.98;;;17.10;;
1987;SDS011;12775;46.994;15.498;2023-11-21T10:39:49;17.14;;;15.34;;
1987;SDS011;12775;46.994;15.498;2023-11-21T10:42:15;17.48;;;15.72;;
1987;SDS011;12775;46.994;15.498;2023-11-21T10:44:43;16.00;;;14.46;;
1987;SDS011;12775;46.994;15.498;2023-11-21T10:47:10;15.74;;;14.24;;
1987;SDS011;12775;46.994;15.498;2023-11-21T10:49:37;17.14;;;15.00;;
1987;SDS011;12775;46.994;15.498;2023-11-21T10:52:03;17.78;;;14.98;;
1987;SDS011;12775;46.994;15.498;2023-11-21T10:54:30;15.06;;;13.28;;
1987;SDS011;12775;46.994;15.498;2023-11-21T10:56:57;16.80;;;14.98;;
1987;SDS011;12775;46.994;15.498;2023-11-21T10:59:28;16.42;;;14.26;;
1987;SDS011;12775;46.994;15.498;2023-11-21T11:01:55;15.66;;;12.86;;
1987;SDS011;12775;46.994;15.498;2023-11-21T11:04:21;16.32;;;11.34;;
1987;SDS011;12775;46.994;15.498;2023-11-21T11:06:51;15.02;;;11.50;;
1987;SDS011;12775;46.994;15.498;2023-11-21T11:09:18;14.22;;;12.82;;
1987;SDS011;12775;46.994;15.498;2023-11-21T11:11:46;13.64;;;12.34;;
1987;SDS011;12775;46.994;15.498;2023-11-21T11:14:13;14.06;;;12.76;;
1987;SDS011;12775;46.994;15.498;2023-11-21T11:16:40;13.84;;;12.64;;
1987;SDS011;12775;46.994;15.498;2023-11-21T11:19:08;14.16;;;11.48;;
1987;SDS011;12775;46.994;15.498;2023-11-21T11:24:06;12.90;;;11.48;;
1987;SDS011;12775;46.994;15.498;2023-11-21T11:26:37;13.04;;;11.84;;
1987;SDS011;12775;46.994;15.498;2023-11-21T11:31:40;13.52;;;10.14;;
1987;SDS011;12775;46.994;15.498;2023-11-21T11:34:12;10.52;;;9.52;;
1987;SDS011;12775;46.994;15.498;2023-11-21T11:36:47;12.06;;;10.84;;
1987;SDS011;12775;46.994;15.498;2023-11-21T11:41:54;12.48;;;11.22;;
1987;SDS011;12775;46.994;15.498;2023-11-21T11:47:00;11.80;;;10.72;;
1987;SDS011;12775;46.994;15.498;2023-11-21T11:49:28;14.62;;;10.42;;
1987;SDS011;12775;46.994;15.498;2023-11-21T11:54:45;12.54;;;10.24;;
1987;SDS011;12775;46.994;15.498;2023-11-21T11:57:12;11.08;;;9.98;;
1987;SDS011;12775;46.994;15.498;2023-11-21T12:02:27;11.46;;;10.28;;
1987;SDS011;12775;46.994;15.498;2023-11-21T12:04:55;10.82;;;9.70;;
1987;SDS011;12775;46.994;15.498;2023-11-21T12:07:21;11.96;;;10.32;;
1987;SDS011;12775;46.994;15.498;2023-11-21T12:09:48;11.54;;;10.46;;
1987;SDS011;12775;46.994;15.498;2023-11-21T12:12:15;11.16;;;10.16;;
1987;SDS011;12775;46.994;15.498;2023-11-21T12:14:41;10.64;;;9.64;;
1987;SDS011;12775;46.994;15.498;2023-11-21T12:17:08;10.76;;;9.88;;
1987;SDS011;12775;46.994;15.498;2023-11-21T12:19:35;13.06;;;9.80;;
1987;SDS011;12775;46.994;15.498;2023-11-21T12:22:02;11.02;;;10.08;;
1987;SDS011;12775;46.994;15.498;2023-11-21T12:24:29;10.84;;;9.78;;
1987;SDS011;12775;46.994;15.498;2023-11-21T12:26:57;12.24;;;9.02;;
1987;SDS011;12775;46.994;15.498;2023-11-21T12:29:24;10.08;;;8.40;;
1987;SDS011;12775;46.994;15.498;2023-11-21T12:31:51;9.96;;;8.94;;
1987;SDS011;12775;46.994;15.498;2023-11-21T12:34:17;10.02;;;8.98;;
1987;SDS011;12775;46.994;15.498;2023-11-21T12:36:45;9.58;;;7.92;;
1987;SDS011;12775;46.994;15.498;2023-11-21T12:39:11;7.58;;;6.78;;
1987;SDS011;12775;46.994;15.498;2023-11-21T12:41:38;8.10;;;7.30;;
1987;SDS011;12775;46.994;15.498;2023-11-21T12:44:08;8.98;;;7.26;;
1987;SDS011;12775;46.994;15.498;2023-11-21T12:46:31;9.40;;;7.98;;
1987;SDS011;12775;46.994;15.498;2023-11-21T12:48:58;9.96;;;9.00;;
1987;SDS011;12775;46.994;15.498;2023-11-21T12:51:24;9.44;;;8.54;;
1987;SDS011;12775;46.994;15.498;2023-11-21T12:53:51;10.36;;;9.30;;
1987;SDS011;12775;46.994;15.498;2023-11-21T12:56:18;10.76;;;9.78;;
1987;SDS011;12775;46.994;15.498;2023-11-21T12:58:45;8.06;;;7.40;;
1987;SDS011;12775;46.994;15.498;2023-11-21T13:01:13;10.10;;;9.06;;
1987;SDS011;12775;46.994;15.498;2023-11-21T13:03:41;11.40;;;8.92;;
1987;SDS011;12775;46.994;15.498;2023-11-21T13:06:07;10.94;;;9.96;;
1987;SDS011;12775;46.994;15.498;2023-11-21T13:08:35;9.76;;;8.78;;
1987;SDS011;12775;46.994;15.498;2023-11-21T13:11:02;9.40;;;8.38;;
1987;SDS011;12775;46.994;15.498;2023-11-21T13:13:29;10.18;;;9.28;;
1987;SDS011;12775;46.994;15.498;2023-11-21T13:16:00;12.42;;;11.22;;
1987;SDS011;12775;46.994;15.498;2023-11-21T13:18:27;10.04;;;9.04;;
1987;SDS011;12775;46.994;15.498;2023-11-21T13:20:54;10.58;;;9.58;;
1987;SDS011;12775;46.994;15.498;2023-11-21T13:23:20;11.82;;;10.78;;
1987;SDS011;12775;46.994;15.498;2023-11-21T13:25:47;11.28;;;10.00;;
1987;SDS011;12775;46.994;15.498;2023-11-21T13:28:14;10.52;;;9.62;;
1987;SDS011;12775;46.994;15.498;2023-11-21T13:30:42;11.64;;;10.54;;
1987;SDS011;12775;46.994;15.498;2023-11-21T13:33:09;10.68;;;9.60;;
1987;SDS011;12775;46.994;15.498;2023-11-21T13:35:37;10.40;;;9.34;;
1987;SDS011;12775;46.994;15.498;2023-11-21T13:38:04;11.90;;;8.94;;
1987;SDS011;12775;46.994;15.498;2023-11-21T13:40:30;10.56;;;9.56;;
1987;SDS011;12775;46.994;15.498;2023-11-21T13:42:57;14.58;;;10.56;;
1987;SDS011;12775;46.994;15.498;2023-11-21T13:45:24;10.70;;;9.22;;
1987;SDS011;12775;46.994;15.498;2023-11-21T13:47:51;10.60;;;9.38;;
1987;SDS011;12775;46.994;15.498;2023-11-21T13:50:18;10.94;;;9.94;;
1987;SDS011;12775;46.994;15.498;2023-11-21T13:52:45;11.26;;;9.44;;
1987;SDS011;12775;46.994;15.498;2023-11-21T13:55:11;11.70;;;10.52;;
1987;SDS011;12775;46.994;15.498;2023-11-21T13:57:38;13.12;;;11.18;;
1987;SDS011;12775;46.994;15.498;2023-11-21T14:00:05;12.92;;;11.72;;
1987;SDS011;12775;46.994;15.498;2023-11-21T14:02:34;11.62;;;10.62;;
1987;SDS011;12775;46.994;15.498;2023-11-21T14:05:00;11.04;;;9.40;;
1987;SDS011;12775;46.994;15.498;2023-11-21T14:07:27;11.18;;;10.08;;
1987;SDS011;12775;46.994;15.498;2023-11-21T14:09:57;10.96;;;9.86;;
1987;SDS011;12775;46.994;15.498;2023-11-21T14:12:24;9.44;;;8.48;;
1987;SDS011;12775;46.994;15.498;2023-11-21T14:14:51;11.74;;;8.66;;
1987;SDS011;12775;46.994;15.498;2023-11-21T14:17:18;8.86;;;8.06;;
1987;SDS011;12775;46.994;15.498;2023-11-21T14:19:44;14.38;;;9.16;;
1987;SDS011;12775;46.994;15.498;2023-11-21T14:22:12;12.28;;;8.50;;
1987;SDS011;12775;46.994;15.498;2023-11-21T14:24:40;9.12;;;8.10;;
1987;SDS011;12775;46.994;15.498;2023-11-21T14:27:07;23.12;;;10.08;;
1987;SDS011;12775;46.994;15.498;2023-11-21T14:29:34;9.04;;;8.14;;
1987;SDS011;12775;46.994;15.498;2023-11-21T14:32:00;12.98;;;8.24;;
1987;SDS011;12775;46.994;15.498;2023-11-21T14:34:29;9.62;;;8.22;;
1987;SDS011;12775;46.994;15.498;2023-11-21T14:36:55;10.44;;;9.38;;
1987;SDS011;12775;46.994;15.498;2023-11-21T14:39:22;9.76;;;8.76;;